UTAV

Turkmenabat Airport

Türkmenabat, Turkmenistan
TAF UTAV 201030Z 2012/2112 05010KT 5000 NSC 530003 TEMPO 2012/2015 01014G24KT 2000 DRDU SCT070 560008 TEMPO 2015/2102 VRB04KT 2000 HZ FU SKC BECMG 2102/2104 07012KT CAVOK TX43/2108Z 530007 TEMPO 2104/2112 01016G26KT 3000 BLDU VV008 SCT050 560006
Issued Valid From Valid To
Jul-20 @ 10:30 UTC
(4 hours ago)
Jul-20 @ 12:00 UTC
(2 hours ago)
Jul-21 @ 12:00 UTC
(in 22 hours)
Jul-20 @ 12:00 to Jul-21 @ 02:00
TAF UTAV 201030Z 2012/2112 05010KT 5000 NSC 530003
Wind Visibility Clouds Turbulence
50° at 10 knots 5,005 meters
  • No significant clouds
Frequent moderate clear air turbulence expected at the surface extending to 3,000' AGL
Temporary Jul-20 @ 12:00 to Jul-20 @ 15:00
TEMPO 2012/2015 01014G24KT 2000 DRDU SCT070 560008
Wind Visibility Clouds Conditions Turbulence
10° at 14 knots
 Gusting to 24 knots
1,996 meters
  • Scattered at 7,000' AGL
  • Low drifting
  • Dust
Occasional severe clear air turbulence expected at the surface extending to 8,000' AGL
Temporary Jul-20 @ 15:00 to Jul-21 @ 02:00
TEMPO 2015/2102 VRB04KT 2000 HZ FU SKC
Wind Visibility Clouds Conditions
Variable at 4 knots 1,996 meters
  • Clear skies
  • Haze
  • Smoke
Becoming Jul-21 @ 02:00 to Jul-21 @ 12:00
BECMG 2102/2104 07012KT CAVOK TX43/2108Z 530007
Wind Visibility Clouds Turbulence
70° at 12 knots 10,000+ meters
  • No significant clouds
Frequent moderate clear air turbulence expected at the surface extending to 7,000' AGL
Temporary Jul-21 @ 04:00 to Jul-21 @ 12:00
TEMPO 2104/2112 01016G26KT 3000 BLDU VV008 SCT050 560006
Wind Visibility Clouds Conditions Turbulence
10° at 16 knots
 Gusting to 26 knots
2,993 meters
  • Vertical visibility at 800' AGL
  • Scattered at 5,000' AGL
  • Blowing
  • Dust
Occasional severe clear air turbulence expected at the surface extending to 6,000' AGL
TAF UTAV 201030Z 2012/2112 05010KT 5000 NSC 530003 TEMPO 2012/2015 01014G24KT 2000 DRDU SCT070 560008 TEMPO 2015/2102 VRB04KT 2000 HZ FU SKC BECMG 2102/2104 07012KT CAVOK TX43/2108Z 530007 TEMPO 2104/2112 01016G26KT 3000 BLDU VV008 SCT050 560006
Issued Jul-20 @ 10:30 UTC
(4 hours ago)
Valid From Jul-20 @ 12:00 UTC
(2 hours ago)
Valid To Jul-21 @ 12:00 UTC
(in 22 hours)
Jul-20 @ 12:00 - Jul-21 @ 02:00
Wind Visibility
50° at 10 knots 5,005 meters
Clouds
  • No significant clouds
Temporary Jul-20 @ 12:00 - Jul-20 @ 15:00
Wind Visibility
10° at 14 knots
 Gusting to 24 knots
1,996 meters
Clouds
  • Scattered at 7,000' AGL
Conditions
  • Low drifting
  • Dust
Temporary Jul-20 @ 15:00 - Jul-21 @ 02:00
Wind Visibility
Variable at 4 knots 1,996 meters
Clouds
  • Clear skies
Conditions
  • Haze
  • Smoke
Becoming Jul-21 @ 02:00 - Jul-21 @ 12:00
Wind Visibility
70° at 12 knots 10,000+ meters
Clouds
  • No significant clouds
Temporary Jul-21 @ 04:00 - Jul-21 @ 12:00
Wind Visibility
10° at 16 knots
 Gusting to 26 knots
2,993 meters
Clouds
  • Vertical visibility at 800' AGL
  • Scattered at 5,000' AGL
Conditions
  • Blowing
  • Dust